Share

Shonto, AZ (86054)

Grand Canyon National Park (KGCN) Elev 6608 ft | 35.95 °N, 112.15 °W | Change Station

Current weather conditions updated 55 minutes ago

Clear
Clear
29 °F
Feels Like 29 °F
N
0
Wind Variable Wind from North
Sunrise 6:42 AM
Sunset 8:01 PM
Moon Waning Gibbous

Today is forecast to be Much Warmer than yesterday.

Pressure 30.13 in
Visibility 10.0 miles
Clouds Clear
Dew Point 28 °F
Humidity 96%
Rainfall 0.00 in
Snow Depth Not available.
UV 0 out of 16
Pollen 8.20 out of 12
Air Quality Not available.
Flu Activity Local Activity
METAR KGCN 201154Z AUTO 00000KT 10SM CLR M02/M02 A3020 RMK AO2 SLP203 70010 T10171022 10017 21022 51003

More Conditions Fewer Conditions

Pressure 30.13 in
Visibility 10.0 miles
Clouds Clear
Dew Point 28 °F
Humidity 96%
Rainfall 0.00 in
Snow Depth Not available.
UV 0 out of 16
Pollen 8.20 out of 12
Air Quality Not available.
Flu Activity Local Activity
METAR KGCN 201154Z AUTO 00000KT 10SM CLR M02/M02 A3020 RMK AO2 SLP203 70010 T10171022 10017 21022 51003

More Conditions Fewer Conditions

10-Day Weather Forecast

Almanac

Astronomy

Apr. 20, 2014 Rise Set
Actual Time 6:42 AM MDT 8:01 PM MDT
Civil Twilight 6:15 AM MDT 8:28 PM MDT
Nautical Twilight 5:42 AM MDT 9:00 PM MDT
Astronomical Twilight 5:09 AM MDT 9:34 PM MDT
Moon 12:41 AM MDT 11:09 AM MDT
Length of Visible Light 14h 13m
Length of Day
13h 19m
Tomorrow will be 2m 10s longer.
Waning Gibbous, 70% of the Moon is Illuminated
Today
Waning Gibbous
Apr 22
Last Quarter
Apr 29
New
May 6
First Quarter
May 14
Full

Today's Extremes

State Highs State Lows

Community

  • EARLY FOGGY MORNING
    EARLY FOGGY MORNING
  • Easter Greetings
    Easter Greetings
  • Sunny day at the coast-Cape Arago Lighthouse
    Sunny day at the coast-Cape Arago Lighthouse
  • Cherry Blossoms
    Cherry Blossoms
  • White-Crowned Sparrow
    White-Crowned Sparrow

WunderPhotos

Upload Photos

1,703,189 photos uploaded!

Nearby

Snow Depth

Station Depth Elevation
Snowslide Canyon 6 in 9730 ft
Mormon Mountain 0 in 7500 ft
White Horse Lake 0 in 7180 ft
Happy Jack 1 in 7630 ft
Baker Butte 0 in 7300 ft

Coastal Water Temperatures

Place Temperature
No Stations Reporting

Earthquake Activity

City Distance Mag. Time & Date
No recent earthquake activity has been reported nearby.
Minimum magnitude displayed is 2.5.

Nearby Weather Stations

Station Location Temp. Windchill Dew Point Humidity Wind Precip. Elev Updated Type
HADS KAYENTA 16 WSW AZ, Shonto, AZ 43 °F 43 °F - - North  at  - 0.00 in / hr 7274 ft 4:25 AM MST MADIS

Show More Stations Show Fewer Stations

What do you think?

We're not finished. Please let us know what you like, what you don't like, and what you are still missing.